Time;durP1;ratioP1;P1;durP2;ratioP2;P2;SDS_P1;SDS_P2;PMS_P1;PMS_P2;Temp;Humidity;BMP_temperature;BMP_pressure;BME280_temperature;BME280_humidity;BME280_pressure;Samples;Min_cycle;Max_cycle;Signal;HPM_P1;HPM_P2
2023/05/05 00:02:19;;;;;;;10.95;7.15;;;;;;;;;;6192173;23;20086;-75
2023/05/05 00:04:44;;;;;;;9.50;7.15;;;;;;;;;;6192423;23;20059;-75
2023/05/05 00:07:10;;;;;;;10.32;7.53;;;;;;;;;;6193584;23;20051;-75
2023/05/05 00:09:35;;;;;;;10.38;7.05;;;;;;;;;;6191815;23;20009;-75
2023/05/05 00:12:00;;;;;;;11.40;7.53;;;;;;;;;;6189494;23;20008;-76
2023/05/05 00:14:26;;;;;;;10.82;7.75;;;;;;;;;;6192644;23;20057;-75
2023/05/05 00:16:51;;;;;;;8.68;7.28;;;;;;;;;;6193726;23;20001;-75
2023/05/05 00:19:17;;;;;;;10.38;7.90;;;;;;;;;;6192979;23;20072;-75
2023/05/05 00:21:42;;;;;;;13.48;8.38;;;;;;;;;;6191536;23;20029;-75
2023/05/05 00:24:09;;;;;;;10.90;8.27;;;;;;;;;;6190065;23;20061;-75
2023/05/05 00:26:34;;;;;;;13.05;8.00;;;;;;;;;;6191568;23;20001;-75
2023/05/05 00:28:59;;;;;;;11.88;8.45;;;;;;;;;;6190729;23;20171;-75
2023/05/05 00:31:25;;;;;;;11.90;8.40;;;;;;;;;;6194225;23;20505;-75
2023/05/05 00:33:51;;;;;;;15.95;8.45;;;;;;;;;;6194482;23;20487;-75
2023/05/05 00:36:16;;;;;;;13.65;9.00;;;;;;;;;;6190055;23;20309;-75
2023/05/05 00:38:41;;;;;;;11.88;8.48;;;;;;;;;;6190716;23;20077;-76
2023/05/05 00:41:07;;;;;;;13.52;9.23;;;;;;;;;;6192042;23;20019;-75
2023/05/05 00:43:32;;;;;;;13.02;9.40;;;;;;;;;;6188994;23;20015;-76
2023/05/05 00:46:08;;;;;;;13.20;9.50;;;;;;;;;;6189842;23;20064;-75
2023/05/05 00:48:33;;;;;;;12.00;9.10;;;;;;;;;;6190609;23;20012;-75
2023/05/05 00:50:58;;;;;;;11.55;9.27;;;;;;;;;;6187474;23;20358;-75
2023/05/05 00:53:25;;;;;;;10.82;8.70;;;;;;;;;;6189862;23;20001;-75
2023/05/05 00:55:52;;;;;;;14.57;9.20;;;;;;;;;;6188543;23;20013;-75
2023/05/05 00:58:17;;;;;;;12.80;9.30;;;;;;;;;;6188286;23;20009;-75
2023/05/05 01:00:43;;;;;;;13.65;9.18;;;;;;;;;;6188461;23;20084;-75
2023/05/05 01:03:09;;;;;;;11.25;9.10;;;;;;;;;;6189306;23;20000;-75
2023/05/05 01:05:50;;;;;;;12.98;9.30;;;;;;;;;;6187900;23;20001;-76
2023/05/05 01:08:47;;;;;;;11.40;8.65;;;;;;;;;;6186677;23;20067;-75
2023/05/05 01:11:31;;;;;;;11.98;9.18;;;;;;;;;;6181808;23;20080;-75
2023/05/05 01:14:03;;;;;;;12.05;9.30;;;;;;;;;;6189407;23;20428;-76
2023/05/05 01:16:32;;;;;;;13.88;9.75;;;;;;;;;;6187693;23;20001;-75
2023/05/05 01:19:28;;;;;;;12.55;8.98;;;;;;;;;;6188815;23;20024;-76
2023/05/05 01:21:59;;;;;;;11.40;9.63;;;;;;;;;;6187162;23;20423;-75
2023/05/05 01:24:39;;;;;;;14.30;9.30;;;;;;;;;;6188888;23;20009;-76
2023/05/05 01:27:26;;;;;;;12.40;9.55;;;;;;;;;;6186766;23;20008;-76
2023/05/05 01:30:28;;;;;;;11.98;9.40;;;;;;;;;;6185333;23;20007;-75
2023/05/05 01:32:59;;;;;;;12.27;9.48;;;;;;;;;;6187778;23;20011;-75
2023/05/05 01:35:28;;;;;;;12.25;9.10;;;;;;;;;;6187322;23;20058;-76
2023/05/05 01:38:17;;;;;;;12.00;9.18;;;;;;;;;;6187521;23;20009;-76
2023/05/05 01:40:51;;;;;;;11.70;9.02;;;;;;;;;;6210594;23;20004;-75
2023/05/05 01:43:19;;;;;;;10.63;7.95;;;;;;;;;;6186801;23;20012;-76
2023/05/05 01:45:46;;;;;;;10.75;8.60;;;;;;;;;;6187041;23;20005;-76
2023/05/05 01:48:15;;;;;;;10.50;8.57;;;;;;;;;;6189447;23;20371;-75
2023/05/05 01:50:42;;;;;;;9.98;7.25;;;;;;;;;;6187975;23;20008;-75
2023/05/05 01:53:09;;;;;;;11.63;7.90;;;;;;;;;;6184698;23;20005;-75
2023/05/05 01:55:36;;;;;;;11.45;8.30;;;;;;;;;;6186031;23;20032;-76
2023/05/05 01:58:03;;;;;;;9.88;7.15;;;;;;;;;;6183099;23;20013;-76
2023/05/05 02:00:30;;;;;;;9.68;6.85;;;;;;;;;;6183619;23;20064;-76
2023/05/05 02:02:58;;;;;;;11.18;8.52;;;;;;;;;;6209783;23;20220;-76
2023/05/05 02:05:25;;;;;;;11.57;8.90;;;;;;;;;;6184580;23;20008;-76
2023/05/05 02:07:55;;;;;;;10.70;8.15;;;;;;;;;;6185458;23;20001;-74
2023/05/05 02:10:21;;;;;;;11.57;8.60;;;;;;;;;;6187431;23;20013;-75
2023/05/05 02:12:47;;;;;;;10.57;8.85;;;;;;;;;;6189200;23;20087;-75
2023/05/05 02:15:15;;;;;;;11.48;9.25;;;;;;;;;;6187041;23;20033;-76
2023/05/05 02:17:42;;;;;;;11.43;9.13;;;;;;;;;;6187780;23;20013;-75
2023/05/05 02:20:10;;;;;;;10.45;7.82;;;;;;;;;;6186789;23;20051;-75
2023/05/05 02:22:36;;;;;;;10.40;8.30;;;;;;;;;;6185608;23;20004;-76
2023/05/05 02:25:02;;;;;;;9.85;7.60;;;;;;;;;;6188306;23;20008;-76
2023/05/05 02:27:32;;;;;;;10.60;7.72;;;;;;;;;;6184989;23;20007;-75
2023/05/05 02:30:07;;;;;;;11.55;8.75;;;;;;;;;;6187170;23;20005;-76
2023/05/05 02:32:36;;;;;;;11.88;8.90;;;;;;;;;;6187571;23;20001;-76
2023/05/05 02:35:09;;;;;;;11.30;8.73;;;;;;;;;;6187656;23;20431;-75
2023/05/05 02:37:36;;;;;;;10.68;7.25;;;;;;;;;;6184985;23;20096;-75
2023/05/05 02:40:07;;;;;;;10.60;7.35;;;;;;;;;;6187954;23;20012;-76
2023/05/05 02:42:41;;;;;;;9.60;8.02;;;;;;;;;;6161168;23;20092;-75
2023/05/05 02:45:11;;;;;;;10.25;7.22;;;;;;;;;;6189656;23;20049;-76
2023/05/05 02:47:37;;;;;;;8.93;7.55;;;;;;;;;;6187996;23;20012;-76
2023/05/05 02:50:04;;;;;;;9.98;7.90;;;;;;;;;;6187342;23;20019;-75
2023/05/05 02:52:30;;;;;;;10.07;6.97;;;;;;;;;;6185914;23;20056;-76
2023/05/05 02:54:55;;;;;;;9.98;7.78;;;;;;;;;;6187860;23;20440;-75
2023/05/05 02:57:29;;;;;;;10.15;7.40;;;;;;;;;;6186425;23;20020;-76
2023/05/05 03:00:30;;;;;;;10.40;7.75;;;;;;;;;;6186530;23;20017;-76
2023/05/05 03:03:02;;;;;;;10.00;7.50;;;;;;;;;;6184514;23;20399;-76
2023/05/05 03:05:33;;;;;;;9.40;7.63;;;;;;;;;;6188766;23;20001;-76
2023/05/05 03:08:16;;;;;;;8.43;6.68;;;;;;;;;;6187825;23;20009;-75
2023/05/05 03:11:00;;;;;;;8.27;6.65;;;;;;;;;;6188127;23;20009;-75
2023/05/05 03:13:28;;;;;;;8.70;6.10;;;;;;;;;;6186064;23;20061;-75
2023/05/05 03:15:54;;;;;;;9.40;6.45;;;;;;;;;;6188291;23;20032;-76
2023/05/05 03:18:22;;;;;;;7.90;5.70;;;;;;;;;;6186342;23;20009;-76
2023/05/05 03:20:48;;;;;;;7.82;5.55;;;;;;;;;;6187299;23;20035;-76
2023/05/05 03:23:13;;;;;;;7.80;6.03;;;;;;;;;;6187978;23;20009;-76
2023/05/05 03:25:46;;;;;;;7.88;5.57;;;;;;;;;;6186190;23;20321;-76
2023/05/05 03:28:13;;;;;;;6.88;5.57;;;;;;;;;;6188806;23;20005;-75
2023/05/05 03:30:38;;;;;;;7.75;4.95;;;;;;;;;;6186868;23;20013;-76
2023/05/05 03:33:04;;;;;;;7.65;5.22;;;;;;;;;;6185938;23;20013;-75
2023/05/05 03:35:29;;;;;;;6.65;5.22;;;;;;;;;;6188326;23;20039;-76
2023/05/05 03:37:54;;;;;;;5.95;4.65;;;;;;;;;;6185903;23;20009;-76
2023/05/05 03:40:21;;;;;;;6.43;4.93;;;;;;;;;;6188885;23;20339;-76
2023/05/05 03:42:46;;;;;;;6.05;4.10;;;;;;;;;;6187520;23;20424;-76
2023/05/05 03:45:12;;;;;;;5.47;3.80;;;;;;;;;;6189317;23;20007;-76
2023/05/05 03:47:37;;;;;;;6.18;3.90;;;;;;;;;;6186857;23;20035;-75
2023/05/05 03:50:02;;;;;;;5.70;3.65;;;;;;;;;;6188489;23;20063;-76
2023/05/05 03:52:28;;;;;;;5.45;3.70;;;;;;;;;;6187204;23;20012;-75
2023/05/05 03:54:53;;;;;;;6.05;4.20;;;;;;;;;;6187250;23;20005;-76
2023/05/05 03:57:18;;;;;;;6.43;3.63;;;;;;;;;;6212255;23;20096;-75
2023/05/05 03:59:44;;;;;;;4.72;3.47;;;;;;;;;;6188880;23;20012;-76
2023/05/05 04:02:10;;;;;;;4.43;2.90;;;;;;;;;;6187879;23;20039;-76
2023/05/05 04:04:35;;;;;;;4.88;3.20;;;;;;;;;;6189722;23;20005;-75
2023/05/05 04:07:00;;;;;;;4.45;3.10;;;;;;;;;;6189093;23;20031;-75
2023/05/05 04:09:26;;;;;;;4.57;3.00;;;;;;;;;;6190046;23;20332;-75
2023/05/05 04:11:51;;;;;;;4.22;2.90;;;;;;;;;;6186298;23;20428;-76
2023/05/05 04:14:16;;;;;;;3.72;2.45;;;;;;;;;;6186603;23;20001;-76
2023/05/05 04:16:41;;;;;;;6.25;2.90;;;;;;;;;;6183282;23;20024;-75
2023/05/05 04:19:07;;;;;;;4.32;2.67;;;;;;;;;;6185278;23;20087;-75
2023/05/05 04:21:32;;;;;;;4.75;2.40;;;;;;;;;;6189027;23;20013;-76
2023/05/05 04:23:57;;;;;;;3.70;2.15;;;;;;;;;;6186381;23;20005;-76
2023/05/05 04:26:23;;;;;;;4.03;2.45;;;;;;;;;;6184571;23;20084;-75
2023/05/05 04:28:48;;;;;;;4.03;2.15;;;;;;;;;;6184999;23;20431;-75
2023/05/05 04:31:13;;;;;;;4.32;2.35;;;;;;;;;;6186391;23;20005;-76
2023/05/05 04:33:39;;;;;;;4.57;2.20;;;;;;;;;;6187688;23;20012;-75
2023/05/05 04:36:04;;;;;;;3.55;2.30;;;;;;;;;;6183117;23;20001;-74
2023/05/05 04:38:30;;;;;;;3.22;1.85;;;;;;;;;;6184628;23;20016;-76
2023/05/05 04:40:55;;;;;;;3.60;2.20;;;;;;;;;;6184180;23;20005;-76
2023/05/05 04:43:21;;;;;;;3.72;2.17;;;;;;;;;;6186533;23;20012;-76
2023/05/05 04:45:55;;;;;;;4.75;2.17;;;;;;;;;;6183886;23;20241;-78
2023/05/05 04:48:20;;;;;;;3.80;2.10;;;;;;;;;;6188510;23;20471;-75
2023/05/05 04:50:46;;;;;;;4.22;2.60;;;;;;;;;;6187618;23;20058;-75
2023/05/05 04:53:11;;;;;;;4.13;2.00;;;;;;;;;;6209464;23;20005;-75
2023/05/05 04:55:38;;;;;;;3.42;2.17;;;;;;;;;;6185226;23;20136;-76
2023/05/05 04:58:03;;;;;;;5.28;2.30;;;;;;;;;;6186504;23;20028;-76
2023/05/05 05:00:28;;;;;;;6.03;2.53;;;;;;;;;;6184389;23;20009;-75
2023/05/05 05:02:54;;;;;;;4.00;2.50;;;;;;;;;;6189079;23;20040;-75
2023/05/05 05:05:20;;;;;;;3.92;2.05;;;;;;;;;;6184836;23;20001;-76
2023/05/05 05:07:45;;;;;;;4.55;2.38;;;;;;;;;;6185472;23;20427;-75
2023/05/05 05:10:11;;;;;;;4.10;2.53;;;;;;;;;;6185556;23;20112;-75
2023/05/05 05:12:36;;;;;;;4.47;2.20;;;;;;;;;;6185464;23;20005;-76
2023/05/05 05:15:02;;;;;;;4.60;2.47;;;;;;;;;;6185510;23;20036;-75
2023/05/05 05:17:29;;;;;;;4.38;2.53;;;;;;;;;;6187388;23;20001;-75
2023/05/05 05:19:55;;;;;;;4.85;2.80;;;;;;;;;;6185266;23;20087;-75
2023/05/05 05:22:20;;;;;;;6.72;3.40;;;;;;;;;;6211189;23;20008;-76
2023/05/05 05:24:46;;;;;;;5.50;3.13;;;;;;;;;;6187000;23;20506;-76
2023/05/05 05:27:11;;;;;;;6.38;2.90;;;;;;;;;;6186893;23;20005;-75
2023/05/05 05:29:36;;;;;;;4.65;2.95;;;;;;;;;;6185213;23;20009;-76
2023/05/05 05:32:02;;;;;;;4.90;3.10;;;;;;;;;;6185917;23;20009;-76
2023/05/05 05:34:27;;;;;;;5.30;3.80;;;;;;;;;;6185391;23;20064;-76
2023/05/05 05:36:52;;;;;;;7.65;4.38;;;;;;;;;;6188144;23;20305;-76
2023/05/05 05:39:18;;;;;;;4.88;3.88;;;;;;;;;;6186914;23;20084;-76
2023/05/05 05:41:43;;;;;;;6.38;3.88;;;;;;;;;;6185773;23;20009;-76
2023/05/05 05:44:08;;;;;;;5.57;4.13;;;;;;;;;;6185000;23;20093;-75
2023/05/05 05:46:34;;;;;;;5.95;3.67;;;;;;;;;;6185457;23;20028;-75
2023/05/05 05:48:59;;;;;;;6.95;4.57;;;;;;;;;;6185361;23;20005;-76
2023/05/05 05:51:25;;;;;;;6.07;3.83;;;;;;;;;;6184641;23;20000;-75
2023/05/05 05:53:50;;;;;;;8.55;4.57;;;;;;;;;;6183282;23;20005;-76
2023/05/05 05:56:16;;;;;;;8.73;4.80;;;;;;;;;;6185972;23;20001;-75
2023/05/05 05:58:41;;;;;;;7.55;5.00;;;;;;;;;;6184533;23;20127;-75
2023/05/05 06:01:06;;;;;;;8.02;5.25;;;;;;;;;;6186936;23;20037;-76
2023/05/05 06:03:32;;;;;;;7.40;4.93;;;;;;;;;;6182823;23;20325;-76
2023/05/05 06:05:58;;;;;;;7.78;5.30;;;;;;;;;;6183759;23;20086;-76
2023/05/05 06:08:23;;;;;;;8.32;5.90;;;;;;;;;;6185376;23;20335;-75
2023/05/05 06:10:48;;;;;;;7.57;5.20;;;;;;;;;;6186017;23;20428;-74
2023/05/05 06:13:14;;;;;;;10.77;6.10;;;;;;;;;;6185106;23;20008;-75
2023/05/05 06:15:39;;;;;;;8.88;6.25;;;;;;;;;;6181853;23;20005;-75
2023/05/05 06:18:05;;;;;;;9.57;6.65;;;;;;;;;;6184651;23;20424;-75
2023/05/05 06:20:30;;;;;;;8.05;6.22;;;;;;;;;;6185162;23;20036;-75
2023/05/05 06:22:56;;;;;;;10.20;6.60;;;;;;;;;;6186920;23;20005;-76
2023/05/05 06:25:21;;;;;;;9.95;7.05;;;;;;;;;;6182328;23;20009;-75
2023/05/05 06:27:46;;;;;;;10.23;6.25;;;;;;;;;;6186140;23;20022;-75
2023/05/05 06:30:13;;;;;;;12.15;6.88;;;;;;;;;;6182320;23;20024;-75
2023/05/05 06:32:38;;;;;;;8.98;6.78;;;;;;;;;;6185101;23;20428;-75
2023/05/05 06:35:04;;;;;;;11.25;7.57;;;;;;;;;;6181955;23;20005;-76
2023/05/05 06:37:30;;;;;;;10.50;7.75;;;;;;;;;;6185263;23;20009;-76
2023/05/05 06:39:55;;;;;;;10.85;7.53;;;;;;;;;;6185131;23;20080;-76
2023/05/05 06:42:21;;;;;;;10.70;7.43;;;;;;;;;;6188071;23;20024;-76
2023/05/05 06:44:46;;;;;;;10.90;7.85;;;;;;;;;;6186959;23;20001;-76
2023/05/05 06:47:11;;;;;;;9.32;7.25;;;;;;;;;;6185108;23;20033;-76
2023/05/05 06:49:37;;;;;;;12.52;7.68;;;;;;;;;;6183649;23;20020;-76
2023/05/05 06:52:02;;;;;;;10.05;7.28;;;;;;;;;;6184254;23;20061;-76
2023/05/05 06:54:27;;;;;;;11.20;7.55;;;;;;;;;;6184623;23;20010;-76
2023/05/05 06:56:53;;;;;;;11.68;7.57;;;;;;;;;;6186131;23;20005;-75
2023/05/05 06:59:18;;;;;;;11.60;7.55;;;;;;;;;;6186790;23;20009;-76
2023/05/05 07:01:43;;;;;;;10.48;7.45;;;;;;;;;;6183363;23;20027;-76
2023/05/05 07:04:09;;;;;;;11.38;7.57;;;;;;;;;;6186678;23;20504;-76
2023/05/05 07:06:34;;;;;;;11.95;7.55;;;;;;;;;;6188232;23;20001;-76
2023/05/05 07:08:59;;;;;;;11.85;7.13;;;;;;;;;;6188144;23;20039;-76
2023/05/05 07:11:25;;;;;;;12.73;7.30;;;;;;;;;;6187854;23;20005;-76
2023/05/05 07:13:50;;;;;;;9.38;6.90;;;;;;;;;;6184434;23;20017;-76
2023/05/05 07:16:15;;;;;;;13.27;7.18;;;;;;;;;;6187000;23;20001;-76
2023/05/05 07:18:41;;;;;;;10.57;6.80;;;;;;;;;;6184575;23;20181;-76
2023/05/05 07:21:06;;;;;;;10.00;6.30;;;;;;;;;;6183999;23;20093;-76
2023/05/05 07:23:32;;;;;;;11.60;6.85;;;;;;;;;;6211015;23;20035;-76
2023/05/05 07:25:57;;;;;;;9.48;6.68;;;;;;;;;;6187930;23;20312;-76
2023/05/05 07:28:23;;;;;;;9.60;6.60;;;;;;;;;;6183614;23;20312;-72
2023/05/05 07:30:48;;;;;;;9.43;6.35;;;;;;;;;;6182861;23;20063;-72
2023/05/05 07:33:13;;;;;;;9.52;6.40;;;;;;;;;;6184307;23;20004;-73
2023/05/05 07:35:39;;;;;;;9.57;6.50;;;;;;;;;;6184614;23;20001;-73
2023/05/05 07:38:04;;;;;;;10.15;6.50;;;;;;;;;;6183427;23;20087;-72
2023/05/05 07:40:30;;;;;;;9.05;6.38;;;;;;;;;;6184719;23;20008;-73
2023/05/05 07:42:55;;;;;;;9.25;6.20;;;;;;;;;;6183738;23;20343;-74
2023/05/05 07:45:20;;;;;;;11.38;6.55;;;;;;;;;;6185378;23;20064;-75
2023/05/05 07:47:46;;;;;;;10.10;7.25;;;;;;;;;;6183867;23;20036;-72
2023/05/05 07:50:12;;;;;;;10.85;6.80;;;;;;;;;;6184991;23;20012;-72
2023/05/05 07:52:37;;;;;;;9.60;6.35;;;;;;;;;;6183416;23;20088;-73
2023/05/05 07:55:02;;;;;;;8.30;5.75;;;;;;;;;;6185489;23;20016;-73
2023/05/05 07:57:28;;;;;;;7.85;6.03;;;;;;;;;;6185494;23;20005;-72
2023/05/05 07:59:53;;;;;;;10.48;5.95;;;;;;;;;;6185480;23;20005;-73
2023/05/05 08:02:20;;;;;;;9.52;6.13;;;;;;;;;;6183923;23;20043;-72
2023/05/05 08:04:46;;;;;;;9.73;5.90;;;;;;;;;;6185429;23;20375;-72
2023/05/05 08:07:11;;;;;;;7.65;5.53;;;;;;;;;;6183376;23;20089;-72
2023/05/05 08:09:37;;;;;;;7.97;5.43;;;;;;;;;;6183446;23;20344;-72
2023/05/05 08:12:02;;;;;;;8.55;6.32;;;;;;;;;;6184524;23;20016;-73
2023/05/05 08:14:28;;;;;;;9.68;6.00;;;;;;;;;;6184950;23;20010;-72
2023/05/05 08:16:54;;;;;;;8.65;6.13;;;;;;;;;;6182784;23;20439;-72
2023/05/05 08:19:19;;;;;;;8.50;6.13;;;;;;;;;;6185070;23;20059;-72
2023/05/05 08:21:45;;;;;;;9.65;5.90;;;;;;;;;;6183837;23;20016;-72
2023/05/05 08:24:10;;;;;;;10.32;5.55;;;;;;;;;;6182643;23;20066;-72
2023/05/05 08:26:35;;;;;;;9.93;5.80;;;;;;;;;;6183476;23;20036;-73
2023/05/05 08:29:01;;;;;;;9.43;5.75;;;;;;;;;;6185459;23;20444;-73
2023/05/05 08:31:28;;;;;;;7.80;5.30;;;;;;;;;;6183383;23;20016;-73
2023/05/05 08:33:54;;;;;;;6.70;3.88;;;;;;;;;;6180826;23;20338;-73
2023/05/05 08:36:19;;;;;;;7.05;4.43;;;;;;;;;;6183629;23;20005;-74
2023/05/05 08:38:45;;;;;;;7.05;4.95;;;;;;;;;;6184911;23;20005;-72
2023/05/05 08:41:13;;;;;;;5.65;3.30;;;;;;;;;;6185360;23;20376;-72
2023/05/05 08:43:38;;;;;;;8.45;3.42;;;;;;;;;;6182777;23;20009;-74
2023/05/05 08:46:04;;;;;;;8.57;4.57;;;;;;;;;;6183039;23;20004;-73
2023/05/05 08:48:32;;;;;;;7.22;4.47;;;;;;;;;;6183074;23;20001;-72
2023/05/05 08:50:58;;;;;;;5.95;3.88;;;;;;;;;;6183713;23;20009;-72
2023/05/05 08:53:44;;;;;;;4.75;3.17;;;;;;;;;;6184729;23;20005;-72
2023/05/05 08:56:12;;;;;;;5.22;3.30;;;;;;;;;;6183869;23;20016;-72
2023/05/05 08:58:37;;;;;;;4.32;2.10;;;;;;;;;;6185071;23;20009;-72
2023/05/05 09:01:04;;;;;;;5.28;2.38;;;;;;;;;;6185391;23;20062;-73
2023/05/05 09:03:31;;;;;;;5.35;2.70;;;;;;;;;;6183553;23;20028;-73
2023/05/05 09:05:57;;;;;;;3.65;2.10;;;;;;;;;;6185309;23;20005;-73
2023/05/05 09:08:23;;;;;;;6.93;3.70;;;;;;;;;;6183868;23;20480;-73
2023/05/05 09:10:50;;;;;;;6.95;3.30;;;;;;;;;;6184760;23;20008;-72
2023/05/05 09:13:15;;;;;;;5.47;2.28;;;;;;;;;;6183921;23;20332;-72
2023/05/05 09:15:41;;;;;;;4.72;3.00;;;;;;;;;;6181824;23;20009;-72
2023/05/05 09:18:13;;;;;;;5.47;2.95;;;;;;;;;;6181576;23;20382;-72
2023/05/05 09:20:40;;;;;;;5.03;2.75;;;;;;;;;;6182467;23;20033;-73
2023/05/05 09:23:09;;;;;;;5.68;2.83;;;;;;;;;;6170849;23;20016;-73
2023/05/05 09:25:35;;;;;;;4.72;2.55;;;;;;;;;;6172567;23;20546;-75
2023/05/05 09:28:08;;;;;;;5.10;2.70;;;;;;;;;;6175981;23;20112;-76
2023/05/05 09:30:34;;;;;;;6.60;3.38;;;;;;;;;;6177989;23;20011;-75
2023/05/05 09:33:01;;;;;;;5.10;3.15;;;;;;;;;;6178420;23;20043;-75
2023/05/05 09:35:26;;;;;;;6.78;2.90;;;;;;;;;;6178564;23;20063;-76
2023/05/05 09:37:52;;;;;;;5.82;3.40;;;;;;;;;;6173805;23;20215;-75
2023/05/05 09:40:18;;;;;;;7.35;3.30;;;;;;;;;;6179912;23;20020;-76
2023/05/05 09:42:44;;;;;;;5.95;3.30;;;;;;;;;;6177026;23;20474;-75
2023/05/05 09:45:16;;;;;;;5.90;3.03;;;;;;;;;;6177842;23;20005;-75
2023/05/05 09:47:41;;;;;;;6.72;3.20;;;;;;;;;;6177758;23;20106;-75
2023/05/05 09:50:09;;;;;;;5.07;2.78;;;;;;;;;;6178833;23;20009;-76
2023/05/05 09:52:35;;;;;;;5.55;3.05;;;;;;;;;;6172555;23;20047;-75
2023/05/05 09:55:00;;;;;;;6.57;3.38;;;;;;;;;;6175210;23;20092;-75
2023/05/05 09:57:32;;;;;;;5.15;3.10;;;;;;;;;;6176430;23;20016;-75
2023/05/05 10:00:03;;;;;;;7.40;3.40;;;;;;;;;;6200492;23;20367;-75
2023/05/05 10:02:32;;;;;;;5.93;3.78;;;;;;;;;;6173788;23;20009;-76
2023/05/05 10:05:03;;;;;;;6.28;3.45;;;;;;;;;;6178303;23;20012;-76
2023/05/05 10:07:28;;;;;;;6.05;3.60;;;;;;;;;;6175811;23;20440;-76
2023/05/05 10:09:54;;;;;;;6.20;3.70;;;;;;;;;;6176192;23;20005;-76
2023/05/05 10:12:19;;;;;;;5.88;3.50;;;;;;;;;;6177605;23;20016;-76
2023/05/05 10:14:45;;;;;;;6.07;3.08;;;;;;;;;;6177202;23;20083;-75
2023/05/05 10:17:11;;;;;;;5.18;2.80;;;;;;;;;;6178762;23;20040;-76
2023/05/05 10:19:38;;;;;;;6.05;3.40;;;;;;;;;;6178476;23;20091;-75
2023/05/05 10:22:07;;;;;;;7.88;3.78;;;;;;;;;;6180670;23;20016;-76
2023/05/05 10:24:46;;;;;;;6.53;3.42;;;;;;;;;;6179825;23;20317;-76
2023/05/05 10:27:17;;;;;;;6.30;3.58;;;;;;;;;;6169144;23;20031;-76
2023/05/05 10:30:06;;;;;;;6.53;3.57;;;;;;;;;;6171118;23;20008;-76
2023/05/05 10:32:37;;;;;;;5.95;3.83;;;;;;;;;;6177685;23;20522;-75
2023/05/05 10:35:06;;;;;;;4.07;1.50;;;;;;;;;;6176059;23;20023;-75
2023/05/05 10:37:32;;;;;;;4.03;1.60;;;;;;;;;;6174736;23;20005;-76
2023/05/05 10:39:57;;;;;;;4.78;1.95;;;;;;;;;;6175416;23;20468;-75
2023/05/05 10:42:23;;;;;;;4.32;1.33;;;;;;;;;;6176455;23;20044;-75
2023/05/05 10:44:52;;;;;;;3.20;1.50;;;;;;;;;;6176442;23;20001;-76
2023/05/05 10:47:18;;;;;;;4.35;1.80;;;;;;;;;;6176689;23;20012;-75
2023/05/05 10:50:16;;;;;;;6.80;2.10;;;;;;;;;;6178814;23;20051;-76
2023/05/05 10:53:06;;;;;;;6.13;3.67;;;;;;;;;;6176112;23;20115;-76
2023/05/05 10:55:49;;;;;;;7.15;4.32;;;;;;;;;;6175823;23;20047;-75
2023/05/05 10:58:47;;;;;;;4.53;2.38;;;;;;;;;;6172665;23;20077;-72
2023/05/05 11:01:27;;;;;;;1.27;0.82;;;;;;;;;;6123229;23;20023;-75
2023/05/05 11:04:16;;;;;;;3.15;0.90;;;;;;;;;;6172898;23;20032;-74
2023/05/05 11:07:07;;;;;;;2.80;0.70;;;;;;;;;;6171244;23;20406;-72
2023/05/05 11:09:40;;;;;;;2.80;0.63;;;;;;;;;;6171549;23;20439;-74
2023/05/05 11:12:06;;;;;;;3.22;0.65;;;;;;;;;;6172461;23;20015;-75
2023/05/05 11:14:32;;;;;;;1.38;0.68;;;;;;;;;;6173736;23;20088;-72
2023/05/05 11:16:57;;;;;;;1.92;0.70;;;;;;;;;;6173146;23;20392;-73
2023/05/05 11:19:41;;;;;;;2.78;1.13;;;;;;;;;;6174628;23;20125;-75
2023/05/05 11:22:06;;;;;;;1.92;0.90;;;;;;;;;;6172414;23;20708;-72
2023/05/05 11:24:32;;;;;;;2.03;0.80;;;;;;;;;;6173536;23;20362;-73
2023/05/05 11:26:57;;;;;;;5.68;1.05;;;;;;;;;;6172268;23;20056;-72
2023/05/05 11:29:23;;;;;;;2.30;0.75;;;;;;;;;;6172367;23;20729;-72
2023/05/05 11:32:13;;;;;;;2.17;0.70;;;;;;;;;;6172262;23;20332;-73
2023/05/05 11:34:48;;;;;;;2.88;0.80;;;;;;;;;;6170933;23;20367;-71
2023/05/05 11:37:15;;;;;;;1.70;0.90;;;;;;;;;;6171644;23;20008;-72
2023/05/05 11:40:01;;;;;;;3.38;1.02;;;;;;;;;;6171088;23;20005;-75
2023/05/05 11:42:27;;;;;;;3.53;1.15;;;;;;;;;;6173190;23;20532;-72
2023/05/05 11:44:53;;;;;;;1.63;0.90;;;;;;;;;;6172531;23;20016;-75
2023/05/05 11:47:18;;;;;;;4.60;1.30;;;;;;;;;;6175349;23;20005;-73
2023/05/05 11:49:43;;;;;;;2.90;1.00;;;;;;;;;;6173824;23;20028;-72
2023/05/05 11:52:13;;;;;;;3.42;1.17;;;;;;;;;;6198927;23;20396;-75
2023/05/05 11:54:46;;;;;;;4.13;1.35;;;;;;;;;;6172825;23;20272;-72
2023/05/05 11:57:12;;;;;;;;;;;;;;;;;;6173649;23;20093;-72
2023/05/05 11:59:53;;;;;;;2.15;0.90;;;;;;;;;;6172018;23;19943;-73
2023/05/05 12:02:20;;;;;;;2.10;0.80;;;;;;;;;;6174373;23;20009;-72
2023/05/05 12:04:46;;;;;;;4.13;1.42;;;;;;;;;;6172122;23;20096;-72
2023/05/05 12:07:16;;;;;;;1.58;0.75;;;;;;;;;;6173512;23;20516;-73
2023/05/05 12:09:43;;;;;;;2.20;0.88;;;;;;;;;;6172305;23;20012;-72
2023/05/05 12:12:09;;;;;;;3.25;0.90;;;;;;;;;;6174975;23;20009;-71
2023/05/05 12:14:34;;;;;;;3.60;1.27;;;;;;;;;;6174801;23;20015;-74
2023/05/05 12:17:06;;;;;;;2.25;1.10;;;;;;;;;;6177388;23;20431;-73
2023/05/05 12:19:32;;;;;;;3.05;1.20;;;;;;;;;;6175607;23;20794;-73
2023/05/05 12:22:01;;;;;;;3.08;1.08;;;;;;;;;;6175599;23;20009;-73
2023/05/05 12:24:28;;;;;;;2.75;1.08;;;;;;;;;;6174585;23;20032;-75
2023/05/05 12:26:54;;;;;;;3.63;1.45;;;;;;;;;;6174354;23;20029;-72
2023/05/05 12:29:24;;;;;;;2.38;1.17;;;;;;;;;;6171716;23;20046;-71
2023/05/05 12:31:49;;;;;;;2.22;1.00;;;;;;;;;;6172609;23;20375;-71
2023/05/05 12:34:15;;;;;;;2.55;1.25;;;;;;;;;;6200044;23;20071;-74
2023/05/05 12:36:41;;;;;;;2.42;1.30;;;;;;;;;;6174780;23;20099;-71
2023/05/05 12:39:07;;;;;;;2.25;1.05;;;;;;;;;;6176229;23;20001;-72
2023/05/05 12:41:33;;;;;;;2.45;1.30;;;;;;;;;;6175927;23;20020;-74
2023/05/05 12:44:00;;;;;;;3.80;1.38;;;;;;;;;;6175947;23;20005;-72
2023/05/05 12:46:28;;;;;;;3.15;1.50;;;;;;;;;;6175260;23;20481;-72
2023/05/05 12:49:04;;;;;;;2.53;1.40;;;;;;;;;;6175529;23;20704;-71
2023/05/05 12:51:34;;;;;;;3.55;1.42;;;;;;;;;;6175933;23;20043;-73
2023/05/05 12:54:02;;;;;;;1.63;1.20;;;;;;;;;;6174970;23;20759;-75
2023/05/05 12:56:29;;;;;;;2.35;1.35;;;;;;;;;;6177493;23;20351;-73
2023/05/05 12:58:54;;;;;;;3.42;1.42;;;;;;;;;;6172771;23;20716;-72
2023/05/05 13:01:20;;;;;;;3.08;1.42;;;;;;;;;;6173749;23;20011;-73
2023/05/05 13:03:46;;;;;;;3.38;1.40;;;;;;;;;;6175489;23;20005;-72
2023/05/05 13:06:19;;;;;;;3.22;1.50;;;;;;;;;;6174930;23;20001;-72
2023/05/05 13:08:44;;;;;;;3.90;2.03;;;;;;;;;;6173509;23;20005;-72
2023/05/05 13:11:11;;;;;;;2.47;1.23;;;;;;;;;;6173335;23;20013;-72
2023/05/05 13:13:36;;;;;;;3.08;1.33;;;;;;;;;;6174067;23;20012;-73
2023/05/05 13:16:01;;;;;;;3.60;1.38;;;;;;;;;;6173012;23;20235;-74
2023/05/05 13:18:27;;;;;;;3.45;1.23;;;;;;;;;;6174746;23;20020;-73
2023/05/05 13:20:52;;;;;;;3.08;1.48;;;;;;;;;;6173937;23;20067;-74
2023/05/05 13:23:18;;;;;;;2.03;1.20;;;;;;;;;;6174026;23;20055;-72
2023/05/05 13:25:44;;;;;;;2.55;1.30;;;;;;;;;;6171581;23;20321;-72
2023/05/05 13:28:09;;;;;;;1.98;1.30;;;;;;;;;;6171551;23;20005;-72
2023/05/05 13:30:35;;;;;;;4.72;1.35;;;;;;;;;;6171382;23;20035;-74
2023/05/05 13:33:02;;;;;;;2.30;1.13;;;;;;;;;;6169863;23;20012;-74
2023/05/05 13:35:28;;;;;;;1.75;1.02;;;;;;;;;;6170916;23;20449;-72
2023/05/05 13:37:53;;;;;;;2.30;1.00;;;;;;;;;;6170099;23;20016;-72
2023/05/05 13:40:19;;;;;;;2.47;1.00;;;;;;;;;;6169793;23;20009;-72
2023/05/05 13:42:44;;;;;;;2.65;1.02;;;;;;;;;;6172998;23;20036;-73
2023/05/05 13:45:11;;;;;;;2.10;1.10;;;;;;;;;;6180338;23;20013;-72
2023/05/05 13:47:36;;;;;;;3.35;1.17;;;;;;;;;;6181432;23;20025;-73
2023/05/05 13:50:02;;;;;;;2.30;1.20;;;;;;;;;;6205940;23;20539;-76
2023/05/05 13:52:27;;;;;;;3.55;1.17;;;;;;;;;;6181629;23;20321;-74
2023/05/05 13:54:53;;;;;;;2.85;1.40;;;;;;;;;;6180767;23;20001;-73
2023/05/05 13:57:18;;;;;;;3.03;1.40;;;;;;;;;;6183726;23;20324;-74
2023/05/05 13:59:43;;;;;;;3.90;1.40;;;;;;;;;;6183272;23;20031;-74
2023/05/05 14:02:09;;;;;;;3.50;1.50;;;;;;;;;;6183399;23;20005;-75
2023/05/05 14:04:34;;;;;;;2.45;1.38;;;;;;;;;;6183094;23;20008;-74
2023/05/05 14:07:00;;;;;;;2.38;1.15;;;;;;;;;;6181405;23;19997;-73
2023/05/05 14:09:25;;;;;;;2.63;1.20;;;;;;;;;;6175966;23;20013;-74
2023/05/05 14:11:53;;;;;;;2.17;1.10;;;;;;;;;;6175847;23;20012;-74
2023/05/05 14:14:19;;;;;;;3.00;1.50;;;;;;;;;;6177839;23;20312;-75
2023/05/05 14:16:45;;;;;;;1.48;1.00;;;;;;;;;;6177256;23;20009;-74
2023/05/05 14:19:10;;;;;;;1.83;1.00;;;;;;;;;;6179495;23;20004;-74
2023/05/05 14:21:35;;;;;;;2.72;1.25;;;;;;;;;;6178400;23;20039;-74
2023/05/05 14:24:01;;;;;;;2.25;1.17;;;;;;;;;;6176943;23;20012;-73
2023/05/05 14:26:26;;;;;;;3.40;1.40;;;;;;;;;;6177760;23;20000;-73
2023/05/05 14:28:51;;;;;;;4.10;1.08;;;;;;;;;;6180152;23;20228;-75
2023/05/05 14:31:17;;;;;;;2.03;1.10;;;;;;;;;;6178471;23;20032;-74
2023/05/05 14:33:42;;;;;;;3.03;1.10;;;;;;;;;;6180064;23;20031;-74
2023/05/05 14:36:07;;;;;;;2.42;1.17;;;;;;;;;;6178353;23;20450;-73
2023/05/05 14:38:33;;;;;;;1.65;0.80;;;;;;;;;;6178782;23;20011;-73
2023/05/05 14:40:58;;;;;;;2.78;1.13;;;;;;;;;;6177082;23;20099;-73
2023/05/05 14:43:23;;;;;;;2.35;1.10;;;;;;;;;;6179141;23;20087;-73
2023/05/05 14:45:49;;;;;;;3.45;1.10;;;;;;;;;;6176390;23;20104;-74